Time;durP1;ratioP1;P1;durP2;ratioP2;P2;SDS_P1;SDS_P2;PMS_P1;PMS_P2;Temp;Humidity;BMP_temperature;BMP_pressure;BME280_temperature;BME280_humidity;BME280_pressure;Samples;Min_cycle;Max_cycle;Signal;HPM_P1;HPM_P2
2022/10/26 00:02:24;;;;;;;5.68;3.85;;;15.60;99.90;;;;;;5014726;28;20104;-92
2022/10/26 00:04:49;;;;;;;4.82;3.55;;;15.50;99.90;;;;;;5014714;28;20110;-92
2022/10/26 00:07:15;;;;;;;5.28;3.63;;;15.50;99.90;;;;;;5013676;28;20076;-92
2022/10/26 00:09:41;;;;;;;4.68;3.30;;;15.40;99.90;;;;;;5030185;28;20026;-91
2022/10/26 00:12:06;;;;;;;6.70;3.67;;;15.40;99.90;;;;;;5029353;28;20030;-91
2022/10/26 00:14:32;;;;;;;6.80;4.03;;;15.40;99.90;;;;;;5014682;28;20512;-91
2022/10/26 00:16:58;;;;;;;5.72;3.65;;;15.40;99.90;;;;;;5014575;28;20480;-91
2022/10/26 00:19:23;;;;;;;4.25;3.88;;;15.40;99.90;;;;;;5014304;28;20503;-92
2022/10/26 00:21:49;;;;;;;4.80;3.63;;;15.30;99.90;;;;;;5014295;28;20026;-91
2022/10/26 00:24:15;;;;;;;4.13;3.72;;;15.30;99.90;;;;;;5014914;28;20018;-92
2022/10/26 00:26:41;;;;;;;6.90;4.05;;;15.20;99.90;;;;;;5014076;28;20033;-91
2022/10/26 00:29:07;;;;;;;5.00;3.72;;;15.20;99.90;;;;;;5013457;28;20022;-91
2022/10/26 00:31:33;;;;;;;4.85;3.78;;;15.10;99.90;;;;;;5014359;28;20032;-91
2022/10/26 00:33:58;;;;;;;5.82;3.45;;;15.10;99.90;;;;;;5029400;28;20022;-91
2022/10/26 00:36:25;;;;;;;4.45;3.70;;;15.20;99.90;;;;;;5029835;28;20519;-91
2022/10/26 00:38:55;;;;;;;3.90;3.50;;;15.20;99.90;;;;;;5014432;28;20088;-91
2022/10/26 00:41:27;;;;;;;4.25;3.13;;;15.10;99.90;;;;;;5013732;28;20060;-91
2022/10/26 00:43:54;;;;;;;9.82;3.70;;;15.00;99.90;;;;;;5014288;28;20022;-91
2022/10/26 00:46:34;;;;;;;4.85;3.30;;;14.90;99.90;;;;;;5014058;28;20037;-91
2022/10/26 00:49:13;;;;;;;5.68;3.40;;;15.00;99.90;;;;;;5013896;28;20068;-91
2022/10/26 00:51:49;;;;;;;5.93;3.83;;;15.00;99.90;;;;;;5013962;28;20029;-91
2022/10/26 00:54:17;;;;;;;5.30;2.90;;;14.80;99.90;;;;;;5012808;28;20026;-91
2022/10/26 00:56:45;;;;;;;5.05;3.17;;;14.90;99.90;;;;;;5012778;28;20496;-92
2022/10/26 00:59:13;;;;;;;5.32;3.50;;;15.00;99.90;;;;;;5012861;28;20079;-91
2022/10/26 01:01:42;;;;;;;4.57;3.55;;;14.90;99.90;;;;;;5014045;28;20057;-91
2022/10/26 01:04:08;;;;;;;5.95;3.88;;;14.80;99.90;;;;;;5012787;28;20095;-91
2022/10/26 01:06:36;;;;;;;5.93;3.78;;;14.60;99.90;;;;;;5013825;28;20022;-91
2022/10/26 01:09:03;;;;;;;3.17;2.92;;;14.60;99.90;;;;;;5013877;28;20022;-91
2022/10/26 01:11:29;;;;;;;3.85;3.08;;;14.60;99.90;;;;;;5011722;28;20026;-91
2022/10/26 01:13:57;;;;;;;4.03;3.30;;;14.60;99.90;;;;;;5029162;28;20022;-91
2022/10/26 01:16:29;;;;;;;4.72;3.67;;;14.70;99.90;;;;;;5013703;28;20033;-91
2022/10/26 01:19:03;;;;;;;4.57;2.75;;;14.80;99.90;;;;;;5012481;28;20115;-91
2022/10/26 01:21:36;;;;;;;3.45;3.15;;;14.70;99.90;;;;;;5012623;28;20026;-91
2022/10/26 01:24:41;;;;;;;6.18;3.80;;;14.70;99.90;;;;;;5012322;28;20030;-91
2022/10/26 01:27:16;;;;;;;4.40;3.33;;;14.40;99.90;;;;;;5013306;28;20041;-91
2022/10/26 01:29:44;;;;;;;3.95;3.40;;;14.60;99.90;;;;;;5013609;28;20506;-91
2022/10/26 01:32:54;;;;;;;5.35;2.95;;;14.60;99.90;;;;;;5013368;28;20022;-91
2022/10/26 01:35:38;;;;;;;4.65;3.00;;;14.50;99.90;;;;;;4953191;29;20031;-91
2022/10/26 01:38:07;;;;;;;4.07;3.50;;;14.50;99.90;;;;;;4936996;29;20028;-91
2022/10/26 01:40:35;;;;;;;3.25;2.63;;;14.70;99.90;;;;;;4953244;29;20031;-91
2022/10/26 01:43:06;;;;;;;3.50;3.08;;;14.70;99.90;;;;;;4952659;29;20531;-91
2022/10/26 01:45:34;;;;;;;3.47;3.08;;;14.50;99.90;;;;;;4952936;29;20032;-91
2022/10/26 01:48:02;;;;;;;3.38;3.05;;;14.30;99.90;;;;;;4952890;29;20031;-91
2022/10/26 01:50:29;;;;;;;3.60;3.17;;;14.30;99.90;;;;;;4952930;29;20107;-91
2022/10/26 01:52:54;;;;;;;5.10;3.60;;;14.30;99.90;;;;;;4952560;29;20039;-92
2022/10/26 01:55:50;;;;;;;4.78;3.25;;;14.40;99.90;;;;;;4952869;29;20030;-90
2022/10/26 01:58:47;;;;;;;3.35;2.70;;;14.30;99.90;;;;;;4949934;29;20193;-92
2022/10/26 02:01:43;;;;;;;4.38;3.40;;;14.30;99.90;;;;;;4952861;29;20043;-91
2022/10/26 02:04:23;;;;;;;3.53;2.92;;;14.30;99.90;;;;;;4953005;29;20027;-91
2022/10/26 02:06:57;;;;;;;3.22;2.90;;;14.30;99.90;;;;;;4996602;28;20116;-91
2022/10/26 02:09:55;;;;;;;4.60;2.97;;;14.30;99.90;;;;;;5013483;28;20048;-91
2022/10/26 02:12:29;;;;;;;3.20;2.90;;;14.40;99.90;;;;;;5013221;28;20025;-91
2022/10/26 02:15:01;;;;;;;4.05;3.03;;;14.40;99.90;;;;;;5012187;28;20487;-93
2022/10/26 02:17:34;;;;;;;4.13;3.13;;;14.30;99.90;;;;;;5012905;28;20030;-91
2022/10/26 02:20:07;;;;;;;5.35;3.53;;;14.30;99.90;;;;;;5028285;28;20058;-91
2022/10/26 02:22:40;;;;;;;3.47;3.13;;;14.30;99.90;;;;;;5030090;28;20040;-91
2022/10/26 02:25:10;;;;;;;5.75;3.13;;;14.20;99.90;;;;;;5016278;28;20050;-91
2022/10/26 02:27:42;;;;;;;5.25;2.92;;;14.20;99.90;;;;;;5017092;28;20050;-91
2022/10/26 02:30:09;;;;;;;4.28;3.15;;;14.20;99.90;;;;;;5016834;28;20026;-91
2022/10/26 02:32:39;;;;;;;3.38;2.92;;;14.10;99.90;;;;;;5015185;28;20025;-91
2022/10/26 02:35:06;;;;;;;3.88;3.17;;;14.10;99.90;;;;;;5031441;28;20558;-91
2022/10/26 02:37:35;;;;;;;3.50;2.72;;;14.10;99.90;;;;;;5016175;28;20033;-91
2022/10/26 02:40:08;;;;;;;3.42;2.53;;;14.00;99.90;;;;;;5016523;28;20026;-91
2022/10/26 02:42:34;;;;;;;4.72;3.22;;;14.00;99.90;;;;;;5016035;28;20018;-92
2022/10/26 02:45:08;;;;;;;3.67;3.15;;;14.10;99.90;;;;;;5016118;28;20022;-91
2022/10/26 02:47:34;;;;;;;4.95;2.92;;;14.10;99.90;;;;;;5016209;28;20088;-91
2022/10/26 02:50:00;;;;;;;3.85;2.80;;;14.00;99.90;;;;;;5015591;28;20030;-91
2022/10/26 02:52:39;;;;;;;3.67;3.08;;;14.10;99.90;;;;;;5016276;28;20088;-91
2022/10/26 02:55:30;;;;;;;3.78;2.95;;;14.00;99.90;;;;;;5016039;28;20108;-91
2022/10/26 02:58:01;;;;;;;;;;;14.00;99.90;;;;;;5008306;28;20068;-91
2022/10/26 03:00:29;;;;;;;4.53;3.10;;;14.00;99.90;;;;;;5015055;28;19912;-91
2022/10/26 03:02:57;;;;;;;4.97;2.80;;;14.00;99.90;;;;;;5016214;28;20030;-92
2022/10/26 03:05:26;;;;;;;4.07;2.83;;;14.00;99.90;;;;;;5015331;28;20500;-91
2022/10/26 03:07:52;;;;;;;3.83;3.40;;;13.90;99.90;;;;;;5031256;28;20100;-91
2022/10/26 03:10:18;;;;;;;5.30;2.78;;;13.90;99.90;;;;;;5016137;28;20034;-91
2022/10/26 03:12:44;;;;;;;4.60;3.45;;;13.90;99.90;;;;;;5015717;28;20510;-91
2022/10/26 03:15:10;;;;;;;4.95;2.58;;;13.90;99.90;;;;;;5014371;28;20030;-91
2022/10/26 03:17:36;;;;;;;4.85;3.30;;;14.00;99.90;;;;;;5031027;28;20087;-91
2022/10/26 03:20:02;;;;;;;4.82;3.00;;;13.90;99.90;;;;;;5015156;28;20483;-91
2022/10/26 03:22:28;;;;;;;3.00;2.70;;;13.90;99.90;;;;;;5015402;28;20308;-91
2022/10/26 03:24:54;;;;;;;3.33;2.88;;;13.90;99.90;;;;;;5030692;28;20526;-91
2022/10/26 03:27:20;;;;;;;3.67;2.88;;;13.90;99.90;;;;;;5015438;28;20022;-91
2022/10/26 03:29:45;;;;;;;3.22;2.88;;;13.90;99.90;;;;;;5014261;28;20506;-91
2022/10/26 03:32:11;;;;;;;4.65;2.97;;;13.70;99.90;;;;;;5014098;28;20025;-91
2022/10/26 03:34:37;;;;;;;3.92;2.75;;;13.90;99.90;;;;;;5013919;28;20117;-91
2022/10/26 03:37:02;;;;;;;4.15;2.80;;;13.80;99.90;;;;;;5015360;28;20033;-91
2022/10/26 03:39:28;;;;;;;5.22;3.10;;;13.80;99.90;;;;;;5015491;28;20404;-91
2022/10/26 03:41:56;;;;;;;3.42;2.80;;;13.70;99.90;;;;;;5013637;28;20482;-91
2022/10/26 03:44:22;;;;;;;3.40;3.08;;;13.70;99.90;;;;;;5013777;28;20025;-91
2022/10/26 03:46:48;;;;;;;3.35;2.92;;;13.80;99.90;;;;;;5015156;28;20030;-91
2022/10/26 03:49:13;;;;;;;4.25;3.22;;;13.80;99.90;;;;;;5014384;28;20515;-91
2022/10/26 03:51:39;;;;;;;3.70;3.35;;;13.60;99.90;;;;;;5015417;28;20029;-91
2022/10/26 03:54:05;;;;;;;4.72;3.05;;;13.50;99.90;;;;;;5013707;28;20176;-92
2022/10/26 03:56:31;;;;;;;4.03;3.22;;;13.50;99.90;;;;;;5014916;28;20507;-91
2022/10/26 03:58:56;;;;;;;5.63;3.13;;;13.40;99.90;;;;;;5013964;28;20030;-91
2022/10/26 04:01:22;;;;;;;4.47;3.28;;;13.60;99.90;;;;;;5013419;28;20029;-90
2022/10/26 04:03:48;;;;;;;4.47;3.50;;;13.60;99.90;;;;;;5014149;28;20022;-91
2022/10/26 04:06:14;;;;;;;3.13;2.78;;;13.80;99.90;;;;;;5013435;28;20160;-91
2022/10/26 04:08:39;;;;;;;6.35;2.83;;;13.70;99.90;;;;;;5014485;28;20026;-92
2022/10/26 04:11:05;;;;;;;3.38;3.05;;;13.60;99.90;;;;;;5013207;28;20522;-91
2022/10/26 04:13:31;;;;;;;4.97;3.13;;;13.50;99.90;;;;;;5014092;28;20022;-90
2022/10/26 04:15:57;;;;;;;3.40;3.00;;;13.50;99.90;;;;;;5014207;28;20037;-90
2022/10/26 04:18:23;;;;;;;3.08;2.63;;;13.50;99.90;;;;;;5013953;28;20488;-90
2022/10/26 04:20:49;;;;;;;4.18;2.67;;;13.60;99.90;;;;;;5014377;28;20033;-90
2022/10/26 04:23:16;;;;;;;4.43;2.58;;;13.50;99.90;;;;;;5014189;28;20025;-91
2022/10/26 04:25:43;;;;;;;6.75;3.13;;;13.50;99.90;;;;;;5013999;28;20092;-91
2022/10/26 04:28:10;;;;;;;4.40;2.80;;;13.50;99.90;;;;;;5014214;28;20068;-91
2022/10/26 04:30:36;;;;;;;4.70;2.92;;;13.50;99.90;;;;;;5013945;28;20018;-91
2022/10/26 04:33:03;;;;;;;5.15;3.00;;;13.50;99.90;;;;;;5013429;28;20033;-91
2022/10/26 04:35:29;;;;;;;3.83;2.63;;;13.40;99.90;;;;;;5028989;28;20109;-90
2022/10/26 04:38:00;;;;;;;3.30;2.75;;;13.50;99.90;;;;;;5013850;28;20037;-89
2022/10/26 04:40:27;;;;;;;3.17;2.63;;;13.50;99.90;;;;;;5013711;28;20045;-90
2022/10/26 04:42:53;;;;;;;3.80;3.20;;;13.50;99.90;;;;;;5013799;28;20041;-90
2022/10/26 04:45:19;;;;;;;4.35;3.33;;;13.50;99.90;;;;;;5013555;28;20022;-90
2022/10/26 04:47:44;;;;;;;4.20;2.75;;;13.60;99.90;;;;;;5013333;28;20026;-91
2022/10/26 04:50:12;;;;;;;4.75;2.58;;;13.60;99.90;;;;;;5028728;28;20026;-90
2022/10/26 04:52:37;;;;;;;3.00;2.58;;;13.50;99.90;;;;;;5013948;28;20057;-91
2022/10/26 04:55:05;;;;;;;3.42;2.47;;;13.50;99.90;;;;;;5012379;28;20550;-90
2022/10/26 04:57:34;;;;;;;4.68;2.83;;;13.60;99.90;;;;;;5013870;28;20034;-91
2022/10/26 05:00:01;;;;;;;3.65;2.60;;;13.60;99.90;;;;;;5012380;28;20489;-90
2022/10/26 05:02:27;;;;;;;3.22;2.85;;;13.50;99.90;;;;;;5011986;28;20036;-90
2022/10/26 05:04:53;;;;;;;4.20;3.03;;;13.60;99.90;;;;;;5012160;28;20018;-90
2022/10/26 05:07:19;;;;;;;5.65;2.90;;;13.40;99.90;;;;;;5013632;28;20400;-90
2022/10/26 05:09:45;;;;;;;5.60;3.25;;;13.40;99.90;;;;;;5013555;28;20076;-91
2022/10/26 05:12:11;;;;;;;3.40;3.08;;;13.40;99.90;;;;;;5013369;28;20032;-91
2022/10/26 05:14:36;;;;;;;5.55;3.00;;;13.50;99.90;;;;;;5013065;28;20100;-90
2022/10/26 05:17:02;;;;;;;3.72;3.00;;;13.60;99.90;;;;;;5013150;28;20041;-89
2022/10/26 05:19:28;;;;;;;3.53;2.92;;;13.80;99.90;;;;;;5013098;28;20545;-91
2022/10/26 05:21:53;;;;;;;3.47;2.90;;;13.80;99.90;;;;;;5013054;28;20026;-90
2022/10/26 05:24:19;;;;;;;3.17;2.75;;;13.80;99.90;;;;;;5013368;28;20388;-91
2022/10/26 05:26:45;;;;;;;3.63;3.10;;;13.70;99.90;;;;;;5013368;28;20026;-90
2022/10/26 05:29:10;;;;;;;4.22;2.83;;;13.80;99.90;;;;;;5013419;28;20033;-91
2022/10/26 05:31:36;;;;;;;3.45;3.15;;;13.90;99.90;;;;;;5028170;28;20495;-91
2022/10/26 05:34:02;;;;;;;4.28;3.78;;;13.80;99.90;;;;;;5012905;28;20492;-91
2022/10/26 05:36:28;;;;;;;4.85;3.03;;;13.80;99.90;;;;;;5013134;28;20376;-90
2022/10/26 05:38:57;;;;;;;7.05;3.20;;;13.80;99.90;;;;;;5012398;28;20499;-90
2022/10/26 05:41:23;;;;;;;8.55;4.05;;;13.60;99.90;;;;;;5012795;28;20034;-91
2022/10/26 05:43:48;;;;;;;7.78;4.07;;;13.60;99.90;;;;;;5013240;28;20018;-91
2022/10/26 05:46:14;;;;;;;11.25;4.78;;;13.60;99.90;;;;;;5013170;28;20026;-90
2022/10/26 05:48:39;;;;;;;7.05;4.78;;;13.50;99.90;;;;;;5013045;28;20026;-91
2022/10/26 05:51:05;;;;;;;10.52;5.07;;;13.60;99.90;;;;;;5013004;28;20053;-90
2022/10/26 05:53:31;;;;;;;10.55;5.00;;;13.50;99.90;;;;;;5013150;28;20105;-90
2022/10/26 05:55:57;;;;;;;6.35;4.50;;;13.50;99.90;;;;;;5028060;28;20488;-90
2022/10/26 05:58:23;;;;;;;7.88;5.07;;;13.60;99.90;;;;;;5014200;28;20068;-90
2022/10/26 06:01:10;;;;;;;9.00;5.55;;;13.50;99.90;;;;;;5016368;28;20030;-89
2022/10/26 06:04:13;;;;;;;6.95;4.70;;;13.50;99.90;;;;;;5014483;28;20030;-89
2022/10/26 06:06:43;;;;;;;9.02;5.53;;;13.50;99.90;;;;;;5015916;28;20024;-89
2022/10/26 06:09:11;;;;;;;9.00;5.05;;;13.60;99.90;;;;;;5031293;28;20021;-89
2022/10/26 06:11:37;;;;;;;8.48;4.57;;;13.60;99.90;;;;;;5015628;28;20029;-89
2022/10/26 06:14:03;;;;;;;8.13;5.20;;;13.60;99.90;;;;;;5030712;28;20045;-89
2022/10/26 06:16:45;;;;;;;6.80;4.40;;;13.70;99.90;;;;;;5015821;28;20141;-88
2022/10/26 06:19:40;;;;;;;9.77;5.15;;;13.80;99.90;;;;;;5015307;28;20026;-89
2022/10/26 06:22:27;;;;;;;8.68;5.38;;;13.60;99.90;;;;;;4954714;29;20113;-89
2022/10/26 06:25:02;;;;;;;8.52;4.93;;;13.60;99.90;;;;;;4938753;29;20051;-88
2022/10/26 06:28:02;;;;;;;7.97;4.93;;;13.70;99.90;;;;;;4954521;29;20035;-88
2022/10/26 06:30:28;;;;;;;9.20;4.93;;;13.80;99.90;;;;;;4916383;29;20163;-88
2022/10/26 06:32:55;;;;;;;8.35;5.03;;;13.70;99.90;;;;;;4921716;29;20419;-88
2022/10/26 06:35:25;;;;;;;6.65;5.00;;;13.70;99.90;;;;;;4916319;29;20114;-88
2022/10/26 06:37:53;;;;;;;8.37;4.90;;;13.90;99.90;;;;;;4916504;29;20064;-88
2022/10/26 06:40:19;;;;;;;7.25;5.05;;;13.90;99.90;;;;;;4916288;29;20056;-88
2022/10/26 06:42:45;;;;;;;8.70;5.18;;;13.90;99.90;;;;;;4916007;29;20197;-88
2022/10/26 06:45:15;;;;;;;7.53;4.10;;;13.90;99.90;;;;;;4916132;29;20577;-88
2022/10/26 06:48:09;;;;;;;6.10;4.50;;;13.90;99.90;;;;;;4916387;29;20038;-88
2022/10/26 06:50:53;;;;;;;6.15;4.25;;;13.80;99.90;;;;;;4915580;29;20024;-88
2022/10/26 06:53:42;;;;;;;5.57;4.38;;;13.90;99.90;;;;;;4915857;29;20071;-88
2022/10/26 06:56:11;;;;;;;5.85;4.32;;;13.80;99.90;;;;;;4915853;29;20039;-88
2022/10/26 06:58:38;;;;;;;5.70;4.35;;;14.00;99.90;;;;;;4928849;29;20043;-88
2022/10/26 07:01:05;;;;;;;6.45;4.38;;;14.00;99.90;;;;;;4954108;29;20024;-88
2022/10/26 07:03:30;;;;;;;4.32;3.92;;;14.00;99.90;;;;;;4970063;28;20122;-88
2022/10/26 07:05:56;;;;;;;4.88;4.22;;;14.00;99.90;;;;;;4983059;28;20117;-89
2022/10/26 07:08:22;;;;;;;6.03;4.57;;;14.10;99.90;;;;;;5013330;28;20509;-88
2022/10/26 07:10:47;;;;;;;6.18;4.40;;;14.10;99.90;;;;;;5029371;28;20037;-88
2022/10/26 07:13:13;;;;;;;4.68;3.85;;;14.10;99.90;;;;;;5014559;28;20028;-88
2022/10/26 07:15:41;;;;;;;5.70;3.90;;;14.10;99.90;;;;;;5014586;28;20112;-89
2022/10/26 07:18:08;;;;;;;4.30;3.88;;;14.10;99.90;;;;;;5014761;28;20491;-88
2022/10/26 07:20:38;;;;;;;5.30;4.32;;;14.10;99.90;;;;;;5014235;28;20068;-88
2022/10/26 07:23:05;;;;;;;4.82;4.22;;;14.30;99.90;;;;;;5014568;28;20033;-88
2022/10/26 07:25:32;;;;;;;4.55;3.63;;;14.20;99.90;;;;;;5028979;28;20046;-89
2022/10/26 07:27:59;;;;;;;5.45;3.95;;;14.30;99.90;;;;;;5029416;28;20549;-89
2022/10/26 07:30:26;;;;;;;4.22;3.83;;;14.40;99.90;;;;;;5029768;28;20053;-88
2022/10/26 07:33:03;;;;;;;4.25;3.85;;;14.50;99.90;;;;;;5029196;28;20515;-89
2022/10/26 07:35:29;;;;;;;4.45;4.05;;;14.50;99.90;;;;;;5013865;28;20119;-89
2022/10/26 07:37:58;;;;;;;4.90;4.30;;;14.40;99.90;;;;;;5014368;28;20061;-89
2022/10/26 07:40:24;;;;;;;6.78;4.07;;;14.30;99.90;;;;;;5014008;28;20037;-89
2022/10/26 07:42:51;;;;;;;5.78;5.13;;;14.40;99.90;;;;;;5028965;28;20029;-89
2022/10/26 07:45:18;;;;;;;5.47;4.70;;;14.50;99.90;;;;;;5013772;28;20145;-89
2022/10/26 07:47:45;;;;;;;5.40;4.32;;;14.60;99.90;;;;;;5014111;28;20022;-89
2022/10/26 07:50:11;;;;;;;4.60;4.15;;;14.50;99.90;;;;;;5028849;28;20029;-89
2022/10/26 07:52:37;;;;;;;5.47;4.50;;;14.50;99.90;;;;;;5012478;28;20026;-89
2022/10/26 07:55:04;;;;;;;4.82;4.18;;;14.70;99.90;;;;;;5013802;28;20029;-89
2022/10/26 07:57:30;;;;;;;5.00;3.90;;;14.80;99.90;;;;;;5012811;28;20022;-89
2022/10/26 07:59:55;;;;;;;4.45;3.97;;;14.80;99.90;;;;;;5013998;28;20494;-89
2022/10/26 08:02:21;;;;;;;7.53;4.68;;;14.90;99.90;;;;;;5012544;28;20510;-89
2022/10/26 08:04:46;;;;;;;4.18;3.75;;;15.00;99.90;;;;;;5012431;28;20574;-89
2022/10/26 08:07:12;;;;;;;4.20;3.80;;;15.30;99.90;;;;;;5013201;28;20588;-89
2022/10/26 08:09:38;;;;;;;4.80;4.32;;;15.40;99.90;;;;;;5029015;28;20472;-90
2022/10/26 08:12:04;;;;;;;6.18;4.13;;;15.60;99.90;;;;;;5029225;28;20060;-90
2022/10/26 08:14:30;;;;;;;4.53;3.92;;;15.50;99.90;;;;;;5012824;28;20022;-90
2022/10/26 08:16:56;;;;;;;5.30;4.05;;;15.50;99.90;;;;;;5028979;28;20030;-91
2022/10/26 08:19:21;;;;;;;4.80;4.22;;;15.40;99.90;;;;;;5013517;28;20076;-90
2022/10/26 08:21:47;;;;;;;6.88;4.07;;;15.40;99.90;;;;;;5013469;28;20060;-89
2022/10/26 08:24:13;;;;;;;5.45;3.97;;;15.50;99.90;;;;;;5014047;28;20050;-90
2022/10/26 08:26:39;;;;;;;6.20;4.13;;;15.70;99.90;;;;;;5013514;28;20076;-90
2022/10/26 08:29:05;;;;;;;5.88;5.13;;;15.70;99.90;;;;;;5013877;28;20028;-90
2022/10/26 08:31:32;;;;;;;5.80;4.82;;;15.70;99.90;;;;;;5029049;28;20025;-91
2022/10/26 08:33:58;;;;;;;6.03;4.50;;;15.80;99.90;;;;;;5029245;28;20099;-91
2022/10/26 08:36:26;;;;;;;6.80;4.45;;;16.00;99.90;;;;;;5013907;28;20030;-91
2022/10/26 08:38:52;;;;;;;5.30;4.65;;;16.30;99.90;;;;;;5014340;28;20145;-91
2022/10/26 08:41:23;;;;;;;6.55;4.30;;;16.40;99.90;;;;;;5014119;28;20068;-91
2022/10/26 08:43:55;;;;;;;6.15;4.70;;;16.30;99.90;;;;;;5014477;28;20022;-92
2022/10/26 08:46:41;;;;;;;7.70;4.45;;;16.40;99.90;;;;;;5014371;28;20033;-92
2022/10/26 08:49:18;;;;;;;5.03;4.05;;;16.40;99.90;;;;;;5014294;28;20034;-91
2022/10/26 08:51:44;;;;;;;6.40;4.30;;;16.40;99.90;;;;;;5012973;28;20542;-92
2022/10/26 08:54:42;;;;;;;6.00;4.32;;;16.50;99.90;;;;;;5013293;28;20026;-92
2022/10/26 08:57:49;;;;;;;4.70;4.13;;;16.50;99.90;;;;;;5010865;28;20041;-92
2022/10/26 09:00:19;;;;;;;7.15;4.57;;;16.40;99.90;;;;;;5010913;28;20061;-92
2022/10/26 09:02:50;;;;;;;5.70;4.50;;;16.40;99.90;;;;;;5013214;28;20061;-92
2022/10/26 09:05:20;;;;;;;6.17;4.77;;;16.50;99.90;;;;;;5014292;28;20018;-92
2022/10/26 09:07:58;;;;;;;6.72;5.03;;;16.60;99.90;;;;;;5012968;28;20258;-92
2022/10/26 09:10:52;;;;;;;7.55;5.22;;;16.60;99.90;;;;;;5013162;28;20483;-92
2022/10/26 09:13:17;;;;;;;6.43;4.60;;;16.70;99.90;;;;;;5014139;28;20026;-92
2022/10/26 09:16:14;;;;;;;6.95;5.05;;;16.70;99.90;;;;;;5012894;28;20030;-91
2022/10/26 09:19:02;;;;;;;6.40;5.50;;;16.80;99.90;;;;;;5013948;28;20053;-92
2022/10/26 09:21:48;;;;;;;6.30;5.35;;;16.80;99.90;;;;;;5013781;28;20026;-92
2022/10/26 09:24:22;;;;;;;6.07;5.03;;;16.90;99.90;;;;;;5013482;28;20518;-92
2022/10/26 09:27:15;;;;;;;6.63;4.63;;;17.00;99.90;;;;;;5010645;28;20057;-92
2022/10/26 09:29:42;;;;;;;5.85;4.22;;;17.10;99.90;;;;;;5013755;28;20026;-92
2022/10/26 09:32:19;;;;;;;6.65;4.80;;;17.10;99.90;;;;;;5015067;28;20061;-92
2022/10/26 09:35:24;;;;;;;4.80;4.30;;;17.20;99.90;;;;;;5033168;28;20083;-92
2022/10/26 09:37:58;;;;;;;5.18;4.68;;;17.20;99.90;;;;;;5015888;28;20052;-92
2022/10/26 09:40:35;;;;;;;5.13;4.63;;;17.20;99.90;;;;;;5016729;28;20030;-92
2022/10/26 09:43:17;;;;;;;6.43;3.97;;;17.20;99.90;;;;;;5016218;28;20061;-92
2022/10/26 09:45:49;;;;;;;6.72;5.03;;;17.20;99.90;;;;;;5017340;28;20034;-92
2022/10/26 09:48:40;;;;;;;5.13;3.88;;;17.20;99.90;;;;;;5032979;28;20026;-92
2022/10/26 09:51:06;;;;;;;6.30;4.00;;;17.30;99.90;;;;;;5017315;28;20022;-92
2022/10/26 09:53:32;;;;;;;5.68;4.88;;;17.30;99.90;;;;;;5016672;28;20037;-92
2022/10/26 09:56:08;;;;;;;4.85;4.43;;;17.40;99.90;;;;;;5016627;28;20504;-92
2022/10/26 09:58:46;;;;;;;4.97;4.05;;;17.50;99.90;;;;;;5017485;28;20045;-92
2022/10/26 10:01:31;;;;;;;6.82;4.60;;;17.50;99.90;;;;;;5016350;28;20033;-93
2022/10/26 10:04:10;;;;;;;7.20;4.95;;;17.60;99.90;;;;;;5016302;28;19909;-92
2022/10/26 10:06:35;;;;;;;4.72;3.90;;;17.70;99.90;;;;;;5016088;28;20129;-92
2022/10/26 10:09:18;;;;;;;5.18;3.95;;;17.70;99.90;;;;;;5016878;28;20057;-92
2022/10/26 10:11:57;;;;;;;5.13;3.70;;;17.70;99.90;;;;;;5016793;28;20033;-92
2022/10/26 10:14:27;;;;;;;5.50;4.07;;;17.70;99.90;;;;;;5016037;28;20038;-92
2022/10/26 10:16:56;;;;;;;4.72;4.22;;;17.80;99.90;;;;;;5016063;28;20105;-92
2022/10/26 10:19:31;;;;;;;7.15;4.82;;;17.90;99.90;;;;;;5016915;28;20033;-92
2022/10/26 10:22:11;;;;;;;4.55;4.00;;;18.10;99.90;;;;;;5031942;28;20030;-92
2022/10/26 10:24:40;;;;;;;6.18;4.15;;;18.20;99.90;;;;;;5032169;28;20033;-92
2022/10/26 10:27:13;;;;;;;6.65;4.28;;;18.40;99.90;;;;;;5032260;28;20491;-92
2022/10/26 10:29:45;;;;;;;6.07;4.60;;;18.40;99.90;;;;;;5015800;28;20022;-92
2022/10/26 10:32:16;;;;;;;6.35;4.45;;;18.70;99.90;;;;;;5031980;28;20103;-92
2022/10/26 10:34:42;;;;;;;7.75;4.80;;;18.80;99.90;;;;;;5016120;28;20068;-92
2022/10/26 10:37:23;;;;;;;6.47;5.13;;;19.00;99.90;;;;;;5016610;28;20022;-92
2022/10/26 10:39:49;;;;;;;8.90;4.82;;;19.10;99.90;;;;;;5015141;28;20530;-92
2022/10/26 10:42:22;;;;;;;7.07;4.93;;;19.30;99.90;;;;;;5014714;28;20065;-92
2022/10/26 10:44:52;;;;;;;8.70;5.45;;;19.50;99.90;;;;;;5031853;28;20022;-92
2022/10/26 10:47:30;;;;;;;13.02;5.60;;;19.60;99.90;;;;;;5015819;28;20048;-91
2022/10/26 10:50:04;;;;;;;8.57;5.38;;;19.70;99.90;;;;;;5015514;28;20056;-92
2022/10/26 10:52:33;;;;;;;9.30;5.40;;;19.70;99.90;;;;;;5015773;28;20079;-91
2022/10/26 10:55:19;;;;;;;9.07;5.38;;;19.80;99.90;;;;;;5015750;28;20057;-92
2022/10/26 10:58:26;;;;;;;14.00;6.13;;;19.80;99.90;;;;;;5014651;28;20022;-91
2022/10/26 11:00:54;;;;;;;10.13;5.60;;;19.80;99.90;;;;;;4955024;29;20046;-92
2022/10/26 11:03:36;;;;;;;10.90;5.85;;;19.80;99.90;;;;;;4955149;29;20043;-91
2022/10/26 11:06:27;;;;;;;9.13;5.28;;;19.90;99.90;;;;;;4955178;29;20035;-91
2022/10/26 11:09:04;;;;;;;9.45;5.90;;;20.00;99.90;;;;;;4939198;29;20118;-92
2022/10/26 11:11:47;;;;;;;7.00;5.13;;;19.90;99.90;;;;;;4938958;29;20031;-91
2022/10/26 11:14:27;;;;;;;6.53;4.78;;;19.80;99.90;;;;;;4955391;29;20058;-92
2022/10/26 11:17:19;;;;;;;7.97;4.75;;;19.70;99.90;;;;;;4938908;29;20031;-92
2022/10/26 11:19:47;;;;;;;8.20;5.00;;;19.70;99.90;;;;;;4955183;29;20074;-91
2022/10/26 11:22:22;;;;;;;8.05;5.43;;;19.80;99.90;;;;;;4938205;29;20050;-91
2022/10/26 11:24:56;;;;;;;7.70;4.63;;;19.80;99.90;;;;;;4938581;29;20051;-91
2022/10/26 11:27:44;;;;;;;12.05;5.30;;;19.70;99.90;;;;;;4938092;29;20100;-91
2022/10/26 11:30:26;;;;;;;9.38;4.55;;;19.70;99.90;;;;;;4938634;29;20057;-91
2022/10/26 11:33:14;;;;;;;9.45;5.25;;;19.70;99.90;;;;;;4948985;29;20035;-92
2022/10/26 11:36:21;;;;;;;9.13;5.43;;;19.80;99.90;;;;;;4968008;28;20514;-91
2022/10/26 11:39:41;;;;;;;8.55;5.13;;;19.80;99.90;;;;;;5014672;28;20026;-90
2022/10/26 11:42:18;;;;;;;8.45;5.65;;;19.80;99.90;;;;;;4953657;29;20039;-91
2022/10/26 11:44:52;;;;;;;8.00;5.57;;;19.90;99.90;;;;;;4938223;29;20501;-90
2022/10/26 11:47:33;;;;;;;7.45;4.70;;;20.00;99.90;;;;;;4937881;29;20085;-92
2022/10/26 11:50:10;;;;;;;;;;;20.00;99.90;;;;;;4954186;29;20580;-90
2022/10/26 11:52:42;;;;;;;7.63;4.88;;;20.10;99.90;;;;;;4953942;29;19946;-92
2022/10/26 11:55:10;;;;;;;11.15;5.38;;;20.20;99.90;;;;;;4953203;28;20118;-91
2022/10/26 11:57:37;;;;;;;7.80;5.05;;;20.20;99.90;;;;;;4953420;29;20039;-90
2022/10/26 12:00:13;;;;;;;6.15;4.45;;;20.20;99.90;;;;;;4953581;29;20631;-91
2022/10/26 12:02:41;;;;;;;10.27;5.45;;;20.30;99.90;;;;;;4953470;29;20109;-91
2022/10/26 12:05:20;;;;;;;8.65;4.85;;;20.40;99.90;;;;;;4953494;29;20576;-91
2022/10/26 12:07:56;;;;;;;11.32;4.63;;;20.40;99.90;;;;;;4937600;29;20066;-91
2022/10/26 12:10:27;;;;;;;6.85;4.90;;;20.50;99.90;;;;;;4953582;29;20039;-91
2022/10/26 12:13:26;;;;;;;6.07;4.32;;;20.60;99.90;;;;;;4937312;29;20031;-91
2022/10/26 12:16:03;;;;;;;8.98;4.88;;;20.60;99.90;;;;;;4953211;29;20027;-90
2022/10/26 12:18:47;;;;;;;9.95;5.40;;;20.80;99.90;;;;;;5010430;28;20065;-91
2022/10/26 12:21:14;;;;;;;8.95;5.00;;;21.00;99.90;;;;;;5013991;28;20030;-91
2022/10/26 12:24:20;;;;;;;5.80;4.90;;;21.00;99.90;;;;;;5013836;28;20030;-91
2022/10/26 12:26:57;;;;;;;8.57;4.63;;;21.10;99.90;;;;;;4991458;28;20078;-91
2022/10/26 12:29:36;;;;;;;8.48;4.80;;;21.10;99.90;;;;;;4991634;28;20026;-90
2022/10/26 12:32:30;;;;;;;14.43;5.60;;;21.10;99.90;;;;;;4991451;28;20105;-91
2022/10/26 12:34:59;;;;;;;7.63;4.95;;;21.20;99.90;;;;;;4991658;28;20117;-91
2022/10/26 12:37:35;;;;;;;6.15;4.88;;;21.20;99.90;;;;;;4975423;28;20034;-90
2022/10/26 12:40:31;;;;;;;7.25;4.72;;;21.20;99.90;;;;;;4991658;28;20066;-91
2022/10/26 12:43:23;;;;;;;9.18;4.50;;;21.30;99.90;;;;;;4991090;28;20034;-91
2022/10/26 12:46:13;;;;;;;6.60;4.50;;;21.40;99.90;;;;;;4933202;29;20067;-90
2022/10/26 12:48:46;;;;;;;8.35;4.00;;;21.30;99.90;;;;;;4933453;29;20063;-90
2022/10/26 12:51:20;;;;;;;12.05;5.05;;;21.30;99.90;;;;;;4933347;29;20083;-90
2022/10/26 12:54:01;;;;;;;7.57;4.75;;;21.40;99.90;;;;;;4917542;29;20127;-91
2022/10/26 12:56:45;;;;;;;5.73;4.53;;;21.40;99.90;;;;;;4917383;29;20039;-90
2022/10/26 12:59:30;;;;;;;5.65;4.43;;;21.40;99.90;;;;;;4917075;29;20032;-90
2022/10/26 13:02:33;;;;;;;6.05;5.00;;;21.30;99.90;;;;;;4952050;29;20031;-90
2022/10/26 13:05:32;;;;;;;9.55;5.45;;;21.30;99.90;;;;;;4952482;29;20133;-91
2022/10/26 13:08:07;;;;;;;9.98;4.70;;;21.30;99.90;;;;;;4971443;28;20026;-90
2022/10/26 13:10:33;;;;;;;8.15;4.93;;;21.30;99.90;;;;;;4971742;28;20126;-90
2022/10/26 13:13:02;;;;;;;6.90;4.40;;;21.30;99.90;;;;;;4970996;28;20027;-90
2022/10/26 13:15:39;;;;;;;5.95;4.43;;;21.30;99.90;;;;;;4971730;28;20042;-90
2022/10/26 13:18:16;;;;;;;7.93;4.50;;;21.30;99.90;;;;;;4971358;28;20030;-90